Pagrindinis puslapis
METAR-TAF:

METAR-TAF

Oro uostai :

Danango tarptautinis oro uostas

Danangas, Vietnamas

platuma: 16-02N, ilguma: 108-11E, Aukštis: 7 m

Dabartinis oras

Ataskaita buvo paskelbta 13 minutes, ne 04:30 UTC
Vėjas 4 kt iš Rytų/Pietryčių, svyruoja nuo Šiaurės Rytų ir Pietų/Pietryčių
Temperatūra 29°C
Drėgmė 62%
Slėgis 1014 hPa
Matomumas 10 km arba daugiau
Išsisklaidę debesys ne aukštis 1500 ft

METAR: VVDN 290430Z 11004KT 040V150 9999 SCT015 29/21 Q1014 NOSIG

Laikas: 11:43 (04:43 UTC)

Prognozė

Ataskaita buvo paskelbta 5 valandos ir 43 minutes, ne 23:00 UTC
Prognozė galioja nuo 29 metu 00 UTC su 29 metu 24 UTC
Vėjas 6 kt iš Vakarų/Pietvakarių
Matomumas: 7000 m
Mažai debesys ne aukštis 1500 ft
Išsisklaidę debesys ne aukštis 6000 ft
Tapsmas
nuo 29 metu 04 UTC su 29 metu 05 UTC
Vėjas 10 kt iš Rytų
Tapsmas
nuo 29 metu 13 UTC su 29 metu 14 UTC
Vėjas 4 kt iš Pietų/Pietvakarių

TAF: VVDN 282300Z 2900/2924 24006KT 7000 FEW015 SCT060 BECMG 2904/2905 10010KT BECMG 2913/2914 20004KT

Orai ataskaitas ir orų prognozės (METAR, TAF).

turimą stotys yra geltonos ir raudonos taškus žemėlapyje.

Perkelti pele per norėdami pamatyti stoties vardą.

Tada spustelėkite, norėdami matyti oro stebėjimo ir prognozės.

Norėdami pakeisti žemėlapį: spustelėkite ant žalios mygtukų su juodo kryžiaus žemyn,; žalią mygtuką su brūkšneliu, jei norite nutolinti; arba žalių rodyklių gretimoms žemėlapius.


METAR-TAF: